Time;durP1;ratioP1;P1;durP2;ratioP2;P2;SDS_P1;SDS_P2;PMS_P1;PMS_P2;Temp;Humidity;BMP_temperature;BMP_pressure;BME280_temperature;BME280_humidity;BME280_pressure;Samples;Min_cycle;Max_cycle;Signal;HPM_P1;HPM_P2
2022/10/31 00:02:21;;;;;;;15.77;13.73;;;22.50;99.90;;;;;;5043271;28;20437;-36
2022/10/31 00:04:47;;;;;;;16.73;13.50;;;22.50;99.90;;;;;;5043038;28;20515;-36
2022/10/31 00:07:14;;;;;;;15.00;13.20;;;22.50;99.90;;;;;;5045485;28;20829;-36
2022/10/31 00:09:42;;;;;;;13.73;12.30;;;22.60;99.90;;;;;;5047373;28;20579;-36
2022/10/31 00:12:09;;;;;;;15.70;13.60;;;22.50;99.90;;;;;;5042376;28;20447;-36
2022/10/31 00:14:35;;;;;;;16.20;13.50;;;22.60;99.90;;;;;;5043992;28;20484;-35
2022/10/31 00:17:03;;;;;;;16.80;13.23;;;22.50;99.90;;;;;;5038311;28;20481;-37
2022/10/31 00:19:29;;;;;;;15.27;13.40;;;22.50;99.90;;;;;;5040035;28;20473;-36
2022/10/31 00:21:56;;;;;;;17.10;12.50;;;22.50;99.90;;;;;;5036718;28;20447;-36
2022/10/31 00:24:23;;;;;;;14.90;11.50;;;22.50;99.90;;;;;;5045964;28;20817;-36
2022/10/31 00:26:51;;;;;;;14.23;12.17;;;22.50;99.90;;;;;;5037812;28;20465;-37
2022/10/31 00:29:17;;;;;;;13.40;11.50;;;22.50;99.90;;;;;;5038201;28;20465;-35
2022/10/31 00:31:44;;;;;;;15.23;11.67;;;22.50;99.90;;;;;;5043084;28;20927;-36
2022/10/31 00:34:11;;;;;;;18.50;13.90;;;22.50;99.90;;;;;;5037507;28;20458;-38
2022/10/31 00:36:38;;;;;;;13.20;10.80;;;22.50;99.90;;;;;;5031319;28;20485;-37
2022/10/31 00:39:04;;;;;;;11.80;10.60;;;22.50;99.90;;;;;;5039805;28;20462;-36
2022/10/31 00:41:31;;;;;;;16.20;12.03;;;22.50;99.90;;;;;;5042927;28;20473;-39
2022/10/31 00:43:59;;;;;;;14.77;11.10;;;22.40;99.90;;;;;;5044037;28;20462;-37
2022/10/31 00:46:26;;;;;;;13.90;12.40;;;22.50;99.90;;;;;;5045476;28;20474;-37
2022/10/31 00:48:52;;;;;;;11.70;10.13;;;22.40;99.90;;;;;;5041784;28;20465;-37
2022/10/31 00:51:19;;;;;;;12.17;11.00;;;22.40;99.90;;;;;;5048646;28;20460;-36
2022/10/31 00:53:46;;;;;;;16.73;12.77;;;22.40;99.90;;;;;;5039236;28;20967;-37
2022/10/31 00:56:13;;;;;;;12.23;10.20;;;22.40;99.90;;;;;;5043840;28;20473;-36
2022/10/31 00:58:39;;;;;;;11.97;10.17;;;22.40;99.90;;;;;;5037907;28;22187;-36
2022/10/31 01:01:07;;;;;;;14.17;12.73;;;22.40;99.90;;;;;;5044819;28;20458;-36
2022/10/31 01:03:34;;;;;;;12.63;10.00;;;22.40;99.90;;;;;;5046128;28;20453;-39
2022/10/31 01:06:03;;;;;;;12.70;10.17;;;22.40;99.90;;;;;;5050688;28;20459;-36
2022/10/31 01:08:30;;;;;;;12.37;10.63;;;22.40;99.90;;;;;;5046435;28;20469;-36
2022/10/31 01:11:02;;;;;;;11.60;10.23;;;22.40;99.90;;;;;;5043890;28;20468;-36
2022/10/31 01:13:29;;;;;;;11.97;10.77;;;22.40;99.90;;;;;;5044303;28;20458;-36
2022/10/31 01:15:56;;;;;;;13.00;10.90;;;22.40;99.90;;;;;;5052594;28;21003;-36
2022/10/31 01:18:24;;;;;;;11.83;10.63;;;22.30;99.90;;;;;;5039628;28;21328;-37
2022/10/31 01:20:59;;;;;;;12.27;10.00;;;22.30;99.90;;;;;;5039932;28;20455;-36
2022/10/31 01:23:26;;;;;;;10.80;9.80;;;22.40;99.90;;;;;;5044398;28;20480;-36
2022/10/31 01:26:00;;;;;;;11.40;9.53;;;22.30;99.90;;;;;;5045897;28;20460;-36
2022/10/31 01:28:27;;;;;;;13.33;9.57;;;22.40;99.90;;;;;;5045699;28;20522;-36
2022/10/31 01:30:54;;;;;;;13.57;10.70;;;22.30;99.90;;;;;;5040246;28;20505;-35
2022/10/31 01:33:20;;;;;;;10.93;9.93;;;22.30;99.90;;;;;;5044042;28;20465;-36
2022/10/31 01:35:48;;;;;;;10.40;9.40;;;22.30;99.90;;;;;;5052670;28;20531;-35
2022/10/31 01:38:15;;;;;;;11.33;10.03;;;22.30;99.90;;;;;;5039774;28;20594;-37
2022/10/31 01:40:42;;;;;;;9.90;8.97;;;22.30;99.90;;;;;;5044613;28;20457;-37
2022/10/31 01:43:13;;;;;;;9.57;8.67;;;22.20;99.90;;;;;;5034121;28;20871;-34
2022/10/31 01:45:40;;;;;;;10.73;9.53;;;22.20;99.90;;;;;;5044920;28;20457;-36
2022/10/31 01:48:14;;;;;;;10.07;9.17;;;22.20;99.90;;;;;;5042378;28;20453;-35
2022/10/31 01:50:42;;;;;;;11.10;9.70;;;22.20;99.90;;;;;;5042843;28;20461;-35
2022/10/31 01:53:11;;;;;;;9.03;8.13;;;22.10;99.90;;;;;;5035110;28;20990;-35
2022/10/31 01:55:41;;;;;;;10.13;8.50;;;22.10;99.90;;;;;;5036297;28;20502;-37
2022/10/31 01:58:12;;;;;;;9.93;8.90;;;22.10;99.90;;;;;;5042436;28;20465;-35
2022/10/31 02:00:40;;;;;;;9.93;9.00;;;22.10;99.90;;;;;;5045094;28;20465;-36
2022/10/31 02:03:07;;;;;;;8.57;7.70;;;22.10;99.90;;;;;;5052032;28;20461;-35
2022/10/31 02:05:34;;;;;;;8.03;7.20;;;22.10;99.90;;;;;;5043407;28;20488;-36
2022/10/31 02:08:05;;;;;;;9.90;8.90;;;22.00;99.90;;;;;;5041751;28;20445;-35
2022/10/31 02:10:35;;;;;;;9.27;8.37;;;22.00;99.90;;;;;;5046435;28;20822;-37
2022/10/31 02:13:05;;;;;;;9.33;8.50;;;22.00;99.90;;;;;;5040129;28;20442;-36
2022/10/31 02:15:32;;;;;;;8.70;7.80;;;22.00;99.90;;;;;;5039878;28;20532;-36
2022/10/31 02:18:00;;;;;;;8.00;7.27;;;22.00;99.90;;;;;;5044420;28;20477;-35
2022/10/31 02:20:32;;;;;;;8.70;7.83;;;22.00;99.90;;;;;;5036486;28;20451;-37
2022/10/31 02:23:22;;;;;;;9.00;7.70;;;22.00;99.90;;;;;;5039471;28;20438;-37
2022/10/31 02:26:11;;;;;;;9.83;8.93;;;21.90;99.90;;;;;;5044838;28;20511;-38
2022/10/31 02:28:59;;;;;;;8.57;7.50;;;21.90;99.90;;;;;;5036287;28;20454;-37
2022/10/31 02:31:34;;;;;;;9.30;8.27;;;21.90;99.90;;;;;;5045914;28;20829;-37
2022/10/31 02:34:09;;;;;;;9.27;8.00;;;21.90;99.90;;;;;;5044983;28;20462;-36
2022/10/31 02:36:41;;;;;;;7.77;7.10;;;21.90;99.90;;;;;;5038643;28;20468;-36
2022/10/31 02:39:13;;;;;;;8.00;7.20;;;21.90;99.90;;;;;;5035374;28;20457;-37
2022/10/31 02:41:47;;;;;;;8.80;7.77;;;21.90;99.90;;;;;;5045147;28;20461;-37
2022/10/31 02:44:21;;;;;;;8.37;7.57;;;21.90;99.90;;;;;;5043274;28;20520;-36
2022/10/31 02:46:53;;;;;;;8.60;7.77;;;21.90;99.90;;;;;;5049074;28;20531;-35
2022/10/31 02:49:27;;;;;;;8.60;7.67;;;21.80;99.90;;;;;;5042833;28;20458;-37
2022/10/31 02:51:54;;;;;;;9.47;8.57;;;21.90;99.90;;;;;;5042190;28;20956;-37
2022/10/31 02:54:24;;;;;;;7.53;6.90;;;21.90;99.90;;;;;;5040500;28;20450;-36
2022/10/31 02:56:55;;;;;;;7.37;6.77;;;21.90;99.90;;;;;;5047016;28;20478;-36
2022/10/31 02:59:23;;;;;;;8.60;7.70;;;21.90;99.90;;;;;;5048584;28;20473;-38
2022/10/31 03:02:04;;;;;;;10.60;7.57;;;21.90;99.90;;;;;;5040161;28;20458;-37
2022/10/31 03:04:52;;;;;;;8.10;7.30;;;21.90;99.90;;;;;;5049425;28;20971;-36
2022/10/31 03:07:26;;;;;;;7.20;6.50;;;21.90;99.90;;;;;;5037797;28;20825;-37
2022/10/31 03:10:03;;;;;;;8.17;7.37;;;21.90;99.90;;;;;;5045076;28;20469;-37
2022/10/31 03:12:38;;;;;;;7.40;6.80;;;21.90;99.90;;;;;;5043917;28;20972;-36
2022/10/31 03:15:15;;;;;;;7.20;6.53;;;21.90;99.90;;;;;;5045586;28;20457;-38
2022/10/31 03:17:53;;;;;;;8.00;6.90;;;21.90;99.90;;;;;;5036764;28;20469;-35
2022/10/31 03:20:25;;;;;;;7.40;6.80;;;21.90;99.90;;;;;;5039783;28;20454;-35
2022/10/31 03:22:53;;;;;;;8.13;7.40;;;21.80;99.90;;;;;;5038017;28;20458;-35
2022/10/31 03:25:20;;;;;;;7.70;6.90;;;21.80;99.90;;;;;;5041928;28;20454;-36
2022/10/31 03:27:48;;;;;;;7.63;6.83;;;21.80;99.90;;;;;;5035753;28;20458;-37
2022/10/31 03:30:16;;;;;;;7.70;6.97;;;21.80;99.90;;;;;;5044797;28;20465;-37
2022/10/31 03:32:49;;;;;;;8.90;6.93;;;21.80;99.90;;;;;;5045796;28;20450;-38
2022/10/31 03:35:20;;;;;;;9.47;7.40;;;21.80;99.90;;;;;;5043519;28;20462;-38
2022/10/31 03:37:48;;;;;;;8.60;7.50;;;21.70;99.90;;;;;;5036959;28;20458;-35
2022/10/31 03:40:17;;;;;;;7.20;6.50;;;21.80;99.90;;;;;;5045116;28;20468;-35
2022/10/31 03:42:52;;;;;;;7.78;7.07;;;21.70;99.90;;;;;;5045369;28;20468;-37
2022/10/31 03:45:24;;;;;;;7.63;6.90;;;21.70;99.90;;;;;;5035034;28;20195;-37
2022/10/31 03:47:53;;;;;;;7.90;7.07;;;21.70;99.90;;;;;;5049091;28;20454;-37
2022/10/31 03:50:22;;;;;;;7.67;6.40;;;21.70;99.90;;;;;;5041297;28;20492;-34
2022/10/31 03:52:52;;;;;;;6.93;6.30;;;;;;;;;;5038954;28;20461;-39
2022/10/31 03:55:21;;;;;;;8.00;7.27;;;21.70;99.90;;;;;;5046459;28;20461;-36
2022/10/31 03:57:55;;;;;;;6.47;5.85;;;21.70;99.90;;;;;;5049974;28;20449;-36
2022/10/31 04:00:22;;;;;;;5.87;5.37;;;21.60;99.90;;;;;;5042549;28;20187;-37
2022/10/31 04:02:56;;;;;;;7.72;6.80;;;21.70;99.90;;;;;;5043526;28;20457;-36
2022/10/31 04:05:23;;;;;;;8.00;6.60;;;21.60;99.90;;;;;;5042080;28;20203;-36
2022/10/31 04:07:54;;;;;;;6.83;5.87;;;21.60;99.90;;;;;;5049862;28;20460;-37
2022/10/31 04:10:22;;;;;;;6.45;5.85;;;21.60;99.90;;;;;;5042664;28;20465;-36
2022/10/31 04:12:53;;;;;;;6.82;6.20;;;21.60;99.90;;;;;;5042564;28;20227;-37
2022/10/31 04:15:21;;;;;;;6.57;5.10;;;21.60;99.90;;;;;;5043844;28;20195;-36
2022/10/31 04:17:51;;;;;;;6.83;6.13;;;21.50;99.90;;;;;;5049405;28;20508;-37
2022/10/31 04:20:19;;;;;;;7.10;6.37;;;21.50;99.90;;;;;;5044387;28;20472;-38
2022/10/31 04:22:46;;;;;;;6.43;5.90;;;21.50;99.90;;;;;;5042516;28;20454;-36
2022/10/31 04:25:12;;;;;;;5.68;5.15;;;21.50;99.90;;;;;;5043079;28;20454;-37
2022/10/31 04:27:39;;;;;;;7.32;6.63;;;21.50;99.90;;;;;;5041216;28;20634;-37
2022/10/31 04:30:07;;;;;;;6.78;5.47;;;21.50;99.90;;;;;;5042783;28;20207;-38
2022/10/31 04:32:34;;;;;;;6.70;5.77;;;21.40;99.90;;;;;;5040244;28;20187;-37
2022/10/31 04:35:00;;;;;;;5.93;5.43;;;21.40;99.90;;;;;;5044049;28;20464;-37
2022/10/31 04:37:28;;;;;;;5.97;5.40;;;21.50;99.90;;;;;;5046038;28;20684;-36
2022/10/31 04:39:55;;;;;;;5.70;5.20;;;21.40;99.90;;;;;;5043409;28;20465;-35
2022/10/31 04:42:22;;;;;;;8.87;6.20;;;21.40;99.90;;;;;;5044449;28;20457;-35
2022/10/31 04:44:48;;;;;;;6.22;5.72;;;21.40;99.90;;;;;;5039569;28;20963;-36
2022/10/31 04:47:15;;;;;;;5.60;5.03;;;21.60;99.90;;;;;;5043204;28;20203;-36
2022/10/31 04:49:42;;;;;;;5.03;4.53;;;21.90;99.90;;;;;;5046224;28;20458;-37
2022/10/31 04:52:08;;;;;;;6.47;5.83;;;22.00;99.90;;;;;;5034834;28;20462;-36
2022/10/31 04:54:36;;;;;;;5.97;5.53;;;22.00;99.90;;;;;;5047153;28;20859;-36
2022/10/31 04:57:03;;;;;;;5.20;4.70;;;22.10;99.90;;;;;;5038205;28;20478;-37
2022/10/31 04:59:30;;;;;;;6.07;5.57;;;22.10;99.90;;;;;;5038796;28;20490;-37
2022/10/31 05:01:57;;;;;;;5.13;4.63;;;22.10;99.90;;;;;;5040525;28;20453;-36
2022/10/31 05:04:23;;;;;;;5.30;4.90;;;22.10;99.90;;;;;;5038795;28;20457;-37
2022/10/31 05:06:50;;;;;;;4.47;4.07;;;22.10;99.90;;;;;;5046849;28;20837;-35
2022/10/31 05:09:17;;;;;;;5.50;5.00;;;22.10;99.90;;;;;;5047762;28;20463;-34
2022/10/31 05:11:45;;;;;;;5.43;5.03;;;22.00;99.90;;;;;;5044771;28;20457;-35
2022/10/31 05:14:12;;;;;;;4.90;4.50;;;22.00;99.90;;;;;;5034087;28;20462;-35
2022/10/31 05:16:38;;;;;;;4.97;4.57;;;22.00;99.90;;;;;;5043123;28;20489;-38
2022/10/31 05:19:05;;;;;;;5.37;4.97;;;22.00;99.90;;;;;;5041714;28;20453;-35
2022/10/31 05:21:32;;;;;;;5.07;4.67;;;22.00;99.90;;;;;;5042868;28;20476;-34
2022/10/31 05:23:58;;;;;;;5.83;4.77;;;22.10;99.90;;;;;;5047195;28;20931;-35
2022/10/31 05:26:25;;;;;;;4.67;4.30;;;22.10;99.90;;;;;;5045970;28;20458;-35
2022/10/31 05:28:53;;;;;;;5.17;4.70;;;22.20;99.90;;;;;;5041414;28;20450;-36
2022/10/31 05:31:20;;;;;;;4.70;4.17;;;22.20;99.90;;;;;;5045089;28;21175;-36
2022/10/31 05:33:47;;;;;;;5.07;4.57;;;22.20;99.90;;;;;;5043404;28;20472;-35
2022/10/31 05:36:13;;;;;;;5.00;3.90;;;22.30;99.90;;;;;;5048783;28;20477;-40
2022/10/31 05:38:40;;;;;;;5.10;4.60;;;22.30;99.90;;;;;;5048979;28;20794;-37
2022/10/31 05:41:07;;;;;;;5.10;4.60;;;22.30;99.90;;;;;;5035943;28;20473;-38
2022/10/31 05:43:33;;;;;;;4.27;3.97;;;22.30;99.90;;;;;;5050842;28;20491;-34
2022/10/31 05:46:01;;;;;;;4.87;4.37;;;22.30;99.90;;;;;;5049514;28;20472;-34
2022/10/31 05:48:28;;;;;;;5.40;4.90;;;22.30;99.90;;;;;;5045600;28;20466;-35
2022/10/31 05:50:55;;;;;;;4.67;4.27;;;22.20;99.90;;;;;;5046425;28;20858;-36
2022/10/31 05:53:21;;;;;;;4.87;4.47;;;22.20;99.90;;;;;;5043138;28;20454;-35
2022/10/31 05:55:48;;;;;;;4.30;3.90;;;22.20;99.90;;;;;;5049046;28;20469;-37
2022/10/31 05:58:15;;;;;;;4.47;3.83;;;22.20;99.90;;;;;;5047352;28;20484;-36
2022/10/31 06:00:42;;;;;;;4.87;4.40;;;22.20;99.90;;;;;;5040086;28;20856;-36
2022/10/31 06:03:10;;;;;;;6.03;5.37;;;22.20;99.90;;;;;;5037873;28;20451;-37
2022/10/31 06:05:37;;;;;;;4.40;4.00;;;22.20;99.90;;;;;;5049219;28;20453;-38
2022/10/31 06:08:04;;;;;;;3.97;3.60;;;22.20;99.90;;;;;;5050200;28;20457;-35
2022/10/31 06:10:30;;;;;;;4.77;4.33;;;22.20;99.90;;;;;;5049993;28;20472;-37
2022/10/31 06:12:57;;;;;;;4.00;3.70;;;22.10;99.90;;;;;;5042354;28;20982;-35
2022/10/31 06:15:24;;;;;;;4.80;4.30;;;22.10;99.90;;;;;;5050746;28;20468;-35
2022/10/31 06:17:59;;;;;;;5.23;4.73;;;22.10;99.90;;;;;;5045312;28;20485;-35
2022/10/31 06:20:27;;;;;;;4.17;3.87;;;22.10;99.90;;;;;;5045212;28;20531;-37
2022/10/31 06:22:54;;;;;;;6.17;4.87;;;22.10;99.90;;;;;;5038518;28;20821;-37
2022/10/31 06:25:21;;;;;;;5.30;4.53;;;22.10;99.90;;;;;;5047469;28;20514;-37
2022/10/31 06:27:47;;;;;;;4.70;4.30;;;22.00;99.90;;;;;;5050032;28;20462;-38
2022/10/31 06:30:15;;;;;;;3.90;3.60;;;22.00;99.90;;;;;;5046625;28;20824;-37
2022/10/31 06:32:41;;;;;;;4.30;3.93;;;22.00;99.90;;;;;;5048272;28;20457;-38
2022/10/31 06:35:08;;;;;;;4.40;4.10;;;22.10;99.90;;;;;;5038378;28;20454;-37
2022/10/31 06:37:37;;;;;;;4.20;3.80;;;22.00;99.90;;;;;;5047282;28;20482;-37
2022/10/31 06:40:04;;;;;;;4.37;4.03;;;22.00;99.90;;;;;;5049513;28;20807;-36
2022/10/31 06:42:30;;;;;;;4.20;3.90;;;22.00;99.90;;;;;;5049916;28;20470;-37
2022/10/31 06:44:57;;;;;;;5.20;4.80;;;22.00;99.90;;;;;;5045606;28;20817;-37
2022/10/31 06:47:24;;;;;;;4.33;3.93;;;22.00;99.90;;;;;;5043426;28;20461;-38
2022/10/31 06:49:51;;;;;;;3.50;3.27;;;22.00;99.90;;;;;;5039971;28;20520;-36
2022/10/31 06:52:17;;;;;;;4.30;4.00;;;22.00;99.90;;;;;;5043121;28;20454;-35
2022/10/31 06:54:45;;;;;;;5.30;4.77;;;22.10;99.90;;;;;;5047947;28;20453;-36
2022/10/31 06:57:12;;;;;;;4.07;3.77;;;22.10;99.90;;;;;;5045417;28;20485;-37
2022/10/31 06:59:39;;;;;;;4.77;4.37;;;22.10;99.90;;;;;;5038678;28;20465;-37
2022/10/31 07:02:06;;;;;;;4.57;4.17;;;22.10;99.90;;;;;;5046425;28;20464;-36
2022/10/31 07:04:32;;;;;;;4.93;3.93;;;22.10;99.90;;;;;;5038540;28;20469;-36
2022/10/31 07:06:59;;;;;;;4.03;3.73;;;22.10;99.90;;;;;;5037175;28;20932;-36
2022/10/31 07:09:26;;;;;;;4.00;3.40;;;22.20;99.90;;;;;;5045379;28;20833;-35
2022/10/31 07:11:54;;;;;;;4.80;4.40;;;22.20;99.90;;;;;;5047807;28;21006;-35
2022/10/31 07:14:21;;;;;;;4.77;4.37;;;22.20;99.90;;;;;;5041870;28;20458;-35
2022/10/31 07:16:50;;;;;;;4.57;4.23;;;22.20;99.90;;;;;;5040061;28;20480;-37
2022/10/31 07:19:17;;;;;;;6.20;5.30;;;22.30;99.90;;;;;;5045053;28;20545;-36
2022/10/31 07:21:44;;;;;;;6.60;6.07;;;22.20;99.90;;;;;;5038315;28;20458;-36
2022/10/31 07:24:11;;;;;;;6.37;5.70;;;22.30;99.90;;;;;;5041847;28;20523;-34
2022/10/31 07:26:37;;;;;;;5.47;4.93;;;22.20;99.90;;;;;;5044451;28;20458;-34
2022/10/31 07:29:05;;;;;;;6.40;5.80;;;22.20;99.90;;;;;;5049746;28;20817;-34
2022/10/31 07:31:32;;;;;;;6.87;6.07;;;22.20;99.90;;;;;;5039216;28;20964;-36
2022/10/31 07:33:59;;;;;;;5.33;4.83;;;22.20;99.90;;;;;;5045836;28;20829;-36
2022/10/31 07:36:25;;;;;;;5.97;5.37;;;22.20;99.90;;;;;;5045458;28;20459;-35
2022/10/31 07:38:52;;;;;;;7.80;5.33;;;22.20;99.90;;;;;;5038890;28;20473;-36
2022/10/31 07:41:19;;;;;;;6.00;5.50;;;22.20;99.90;;;;;;5038410;28;20528;-37
2022/10/31 07:43:46;;;;;;;6.37;5.77;;;22.20;99.90;;;;;;5050510;28;20461;-34
2022/10/31 07:46:14;;;;;;;7.00;6.27;;;22.20;99.90;;;;;;5046357;28;20973;-34
2022/10/31 07:48:41;;;;;;;11.00;6.67;;;22.20;99.90;;;;;;5042424;28;20462;-37
2022/10/31 07:51:07;;;;;;;5.83;5.23;;;22.20;99.90;;;;;;5039948;28;20888;-36
2022/10/31 07:53:34;;;;;;;6.33;5.80;;;22.20;99.90;;;;;;5035698;28;20462;-36
2022/10/31 07:56:01;;;;;;;6.73;6.17;;;22.30;99.90;;;;;;5045427;28;20487;-35
2022/10/31 07:58:27;;;;;;;6.93;5.60;;;22.30;99.90;;;;;;5048515;28;20481;-36
2022/10/31 08:00:54;;;;;;;6.53;5.80;;;22.30;99.90;;;;;;5041647;28;20832;-34
2022/10/31 08:03:22;;;;;;;6.30;5.70;;;22.30;99.90;;;;;;5034244;28;20877;-37
2022/10/31 08:05:49;;;;;;;8.60;6.00;;;22.30;99.90;;;;;;5046435;28;20457;-37
2022/10/31 08:08:16;;;;;;;10.20;6.07;;;22.30;99.90;;;;;;5037895;28;20466;-34
2022/10/31 08:10:43;;;;;;;6.63;6.03;;;22.30;99.90;;;;;;5044476;28;20528;-34
2022/10/31 08:13:13;;;;;;;7.00;6.30;;;22.30;99.90;;;;;;5051056;28;20430;-36
2022/10/31 08:15:41;;;;;;;7.07;6.37;;;22.30;99.90;;;;;;5034128;28;20480;-36
2022/10/31 08:18:12;;;;;;;6.37;5.60;;;22.30;99.90;;;;;;5039998;28;20836;-35
2022/10/31 08:20:41;;;;;;;6.20;5.60;;;22.30;99.90;;;;;;5040126;28;20465;-35
2022/10/31 08:23:09;;;;;;;7.30;5.50;;;22.40;99.90;;;;;;5037875;28;20520;-36
2022/10/31 08:25:36;;;;;;;6.30;5.70;;;22.40;99.90;;;;;;5040350;28;20457;-36
2022/10/31 08:28:03;;;;;;;7.47;5.93;;;22.40;99.90;;;;;;5041059;28;20457;-35
2022/10/31 08:30:33;;;;;;;8.70;5.70;;;22.40;99.90;;;;;;5037884;28;20488;-35
2022/10/31 08:33:04;;;;;;;7.83;5.80;;;22.40;99.90;;;;;;5041531;28;20802;-35
2022/10/31 08:35:30;;;;;;;6.43;5.80;;;22.40;99.90;;;;;;5038951;28;20464;-35
2022/10/31 08:37:59;;;;;;;6.00;5.40;;;22.40;99.90;;;;;;5043684;28;20505;-36
2022/10/31 08:40:27;;;;;;;6.67;6.07;;;22.40;99.90;;;;;;5036853;28;20469;-35
2022/10/31 08:42:58;;;;;;;6.53;5.80;;;22.40;99.90;;;;;;5047628;28;20461;-36
2022/10/31 08:45:25;;;;;;;7.47;5.00;;;22.40;99.90;;;;;;5032149;28;20918;-35
2022/10/31 08:47:52;;;;;;;7.03;6.43;;;22.50;99.90;;;;;;5034802;28;20554;-35
2022/10/31 08:50:19;;;;;;;7.30;5.90;;;22.40;99.90;;;;;;5044997;28;20520;-35
2022/10/31 08:52:45;;;;;;;6.07;5.37;;;22.40;99.90;;;;;;5037407;28;20461;-36
2022/10/31 08:55:14;;;;;;;6.60;5.83;;;22.50;99.90;;;;;;5033691;28;20540;-35
2022/10/31 08:57:41;;;;;;;6.47;4.97;;;22.50;99.90;;;;;;5037105;28;21011;-35
2022/10/31 09:00:09;;;;;;;5.43;4.77;;;22.50;99.90;;;;;;5044413;28;20466;-35
2022/10/31 09:02:36;;;;;;;6.57;5.63;;;22.50;99.90;;;;;;5051024;28;20449;-35
2022/10/31 09:05:03;;;;;;;5.50;4.67;;;22.50;99.90;;;;;;5048464;28;20483;-35
2022/10/31 09:07:30;;;;;;;6.90;5.13;;;22.50;99.90;;;;;;5040802;28;20465;-35
2022/10/31 09:09:57;;;;;;;11.30;5.53;;;22.50;99.90;;;;;;5050541;28;20515;-35
2022/10/31 09:12:25;;;;;;;7.33;4.67;;;22.50;99.90;;;;;;5047303;28;20970;-36
2022/10/31 09:14:52;;;;;;;6.00;4.50;;;22.60;99.90;;;;;;5048218;28;20454;-35
2022/10/31 09:17:18;;;;;;;6.20;5.60;;;22.60;99.90;;;;;;5048355;28;20527;-35
2022/10/31 09:19:45;;;;;;;10.10;6.03;;;22.60;99.90;;;;;;5036526;28;20446;-35
2022/10/31 09:22:12;;;;;;;10.43;5.80;;;22.60;99.90;;;;;;5038807;28;20457;-37
2022/10/31 09:24:38;;;;;;;13.60;6.50;;;22.50;99.90;;;;;;5046706;28;20434;-37
2022/10/31 09:27:05;;;;;;;8.37;6.30;;;22.50;99.90;;;;;;5037480;28;20481;-36
2022/10/31 09:29:33;;;;;;;12.97;6.33;;;22.50;99.90;;;;;;5053617;28;20919;-35
2022/10/31 09:32:00;;;;;;;13.50;7.03;;;22.50;99.90;;;;;;5048311;28;20449;-35
2022/10/31 09:34:26;;;;;;;14.07;8.97;;;22.50;99.90;;;;;;5051869;28;20465;-36
2022/10/31 09:36:54;;;;;;;12.73;7.80;;;22.50;99.90;;;;;;5047966;28;20468;-34
2022/10/31 09:39:20;;;;;;;9.90;7.00;;;22.50;99.90;;;;;;5045935;28;20474;-35
2022/10/31 09:42:05;;;;;;;8.37;6.70;;;22.60;99.90;;;;;;5045298;28;20816;-35
2022/10/31 09:44:44;;;;;;;10.00;7.63;;;22.60;99.90;;;;;;5049048;28;20461;-34
2022/10/31 09:47:20;;;;;;;11.20;7.20;;;22.60;99.90;;;;;;5044222;28;20474;-36
2022/10/31 09:50:03;;;;;;;13.90;8.23;;;22.60;99.90;;;;;;5047235;28;20461;-36
2022/10/31 09:52:32;;;;;;;13.00;9.03;;;22.60;99.90;;;;;;5034762;28;20470;-34
2022/10/31 09:55:03;;;;;;;14.97;8.93;;;22.60;99.90;;;;;;5036765;28;20464;-36
2022/10/31 09:57:33;;;;;;;14.73;7.73;;;22.60;99.90;;;;;;5049466;28;20457;-34
2022/10/31 10:00:04;;;;;;;12.10;7.63;;;22.70;99.90;;;;;;5045848;28;20460;-35
2022/10/31 10:02:37;;;;;;;9.70;6.50;;;22.70;99.90;;;;;;5053346;28;20971;-34
2022/10/31 10:05:05;;;;;;;11.80;6.13;;;22.70;99.90;;;;;;5045967;28;20462;-35
2022/10/31 10:07:41;;;;;;;10.93;7.03;;;22.80;99.90;;;;;;5041785;28;20449;-35
2022/10/31 10:10:16;;;;;;;8.97;6.00;;;22.80;99.90;;;;;;5037935;28;20462;-35
2022/10/31 10:12:54;;;;;;;11.67;6.43;;;22.80;99.90;;;;;;5042364;28;20839;-35
2022/10/31 10:15:35;;;;;;;6.87;6.20;;;22.80;99.90;;;;;;5051367;28;20445;-36
2022/10/31 10:18:10;;;;;;;11.47;6.03;;;22.90;99.90;;;;;;5049497;28;20496;-35
2022/10/31 10:20:45;;;;;;;7.60;6.77;;;22.90;99.90;;;;;;5046617;28;20471;-35
2022/10/31 10:23:28;;;;;;;9.43;5.83;;;23.00;99.90;;;;;;5049497;28;20468;-35
2022/10/31 10:26:03;;;;;;;8.30;5.50;;;23.00;99.90;;;;;;5044969;28;20824;-34
2022/10/31 10:28:38;;;;;;;11.43;5.00;;;23.00;99.90;;;;;;5043621;28;20956;-35
2022/10/31 10:31:09;;;;;;;10.17;5.50;;;23.00;99.90;;;;;;5037288;28;20454;-35
2022/10/31 10:33:40;;;;;;;10.27;5.73;;;23.00;99.90;;;;;;5043132;28;20476;-35
2022/10/31 10:36:13;;;;;;;17.10;5.37;;;23.00;99.90;;;;;;5044714;28;20462;-36
2022/10/31 10:38:50;;;;;;;8.90;5.83;;;23.00;99.90;;;;;;5044295;28;20473;-36
2022/10/31 10:41:19;;;;;;;11.87;4.63;;;23.00;99.90;;;;;;5047908;28;20468;-36
2022/10/31 10:43:45;;;;;;;4.60;4.07;;;23.00;99.90;;;;;;5043933;28;20453;-37
2022/10/31 10:49:17;;;;;;;6.50;4.50;;;23.00;99.90;;;;;;5038426;28;20457;-36
2022/10/31 10:51:47;;;;;;;6.40;4.47;;;23.00;99.90;;;;;;5043958;28;20533;-35
2022/10/31 10:54:34;;;;;;;8.47;5.30;;;23.00;99.90;;;;;;5050285;28;20441;-34
2022/10/31 10:57:11;;;;;;;5.70;4.40;;;23.00;99.90;;;;;;5039268;28;20462;-35
2022/10/31 10:59:38;;;;;;;4.73;4.33;;;23.00;99.90;;;;;;5039698;28;20483;-35
2022/10/31 11:02:18;;;;;;;8.83;4.53;;;23.00;99.90;;;;;;5040124;28;20468;-35
2022/10/31 11:04:48;;;;;;;7.50;5.63;;;23.00;99.90;;;;;;5037694;28;20812;-34
2022/10/31 11:07:15;;;;;;;8.40;5.40;;;23.00;99.90;;;;;;5042689;28;20446;-34
2022/10/31 11:09:41;;;;;;;7.07;5.10;;;23.00;99.90;;;;;;5048148;28;20777;-35
2022/10/31 11:12:10;;;;;;;7.33;5.40;;;23.00;99.90;;;;;;5043362;28;20465;-36
2022/10/31 11:14:45;;;;;;;13.47;5.00;;;22.90;99.90;;;;;;5043127;28;20461;-38
2022/10/31 11:17:31;;;;;;;6.10;5.13;;;23.00;99.90;;;;;;5040072;28;20551;-38
2022/10/31 11:20:03;;;;;;;5.73;5.10;;;22.90;99.90;;;;;;5039806;28;20477;-39
2022/10/31 11:22:30;;;;;;;7.43;5.30;;;23.00;99.90;;;;;;5034412;28;20896;-36
2022/10/31 11:24:57;;;;;;;8.20;5.50;;;23.00;99.90;;;;;;5033750;28;20454;-38
2022/10/31 11:27:26;;;;;;;5.93;5.37;;;23.00;99.90;;;;;;5042574;28;20830;-39
2022/10/31 11:29:53;;;;;;;7.87;4.70;;;23.10;99.90;;;;;;5038658;28;20461;-36
2022/10/31 11:32:24;;;;;;;7.80;4.43;;;23.10;99.90;;;;;;5037573;28;20461;-39
2022/10/31 11:34:54;;;;;;;8.93;5.03;;;23.10;99.90;;;;;;5032435;28;20461;-35
2022/10/31 11:37:23;;;;;;;7.77;4.83;;;23.10;99.90;;;;;;5035271;28;20442;-38
2022/10/31 11:39:54;;;;;;;11.73;5.27;;;23.10;99.90;;;;;;5039130;28;20984;-35
2022/10/31 11:42:23;;;;;;;5.00;4.50;;;23.10;99.90;;;;;;5035354;28;20442;-36
2022/10/31 11:44:51;;;;;;;5.97;4.30;;;23.10;99.90;;;;;;5040617;28;20617;-35
2022/10/31 11:47:20;;;;;;;9.03;4.20;;;23.10;99.90;;;;;;5046008;28;20458;-36
2022/10/31 11:49:49;;;;;;;6.93;4.43;;;23.10;99.90;;;;;;5043907;28;20453;-35
2022/10/31 11:52:19;;;;;;;6.90;5.07;;;23.10;99.90;;;;;;5048023;28;20542;-36
2022/10/31 11:54:50;;;;;;;7.70;4.53;;;23.10;99.90;;;;;;5050876;28;20446;-35
2022/10/31 11:57:24;;;;;;;10.17;4.93;;;23.10;99.90;;;;;;5050176;28;20473;-36
2022/10/31 11:59:53;;;;;;;10.77;5.50;;;23.10;99.90;;;;;;5043692;28;20509;-35
2022/10/31 12:02:21;;;;;;;8.70;5.40;;;23.10;99.90;;;;;;5032155;28;20482;-35
2022/10/31 12:04:55;;;;;;;10.43;6.60;;;23.10;99.90;;;;;;5036618;28;20462;-35
2022/10/31 12:07:23;;;;;;;7.63;5.30;;;23.10;99.90;;;;;;5041768;28;20782;-35
2022/10/31 12:09:49;;;;;;;7.20;5.70;;;23.10;99.90;;;;;;5047345;28;20457;-36
2022/10/31 12:12:46;;;;;;;5.93;5.33;;;23.10;99.90;;;;;;5037204;28;20465;-35
2022/10/31 12:15:33;;;;;;;12.67;6.00;;;23.10;99.90;;;;;;5038126;28;20473;-35
2022/10/31 12:18:28;;;;;;;6.47;5.03;;;23.10;99.90;;;;;;5046648;28;20566;-35
2022/10/31 12:21:08;;;;;;;6.00;5.13;;;23.10;99.90;;;;;;5037837;28;20495;-35
2022/10/31 12:23:45;;;;;;;5.97;5.40;;;23.10;99.90;;;;;;5048704;28;20453;-35
2022/10/31 12:26:19;;;;;;;5.30;4.77;;;23.10;99.90;;;;;;5049495;28;20449;-35
2022/10/31 12:29:03;;;;;;;5.17;4.30;;;23.10;99.90;;;;;;5035760;28;20481;-35
2022/10/31 12:31:40;;;;;;;8.10;5.13;;;23.10;99.90;;;;;;5034909;28;20529;-35
2022/10/31 12:34:44;;;;;;;7.53;5.13;;;23.10;99.90;;;;;;5045706;28;20464;-34
2022/10/31 12:37:22;;;;;;;7.03;4.93;;;23.10;99.90;;;;;;5051291;28;20448;-35
2022/10/31 12:39:56;;;;;;;7.90;5.90;;;23.10;99.90;;;;;;5041585;28;20488;-35
2022/10/31 12:42:34;;;;;;;6.10;5.23;;;23.10;99.90;;;;;;5055102;28;21083;-35
2022/10/31 12:45:25;;;;;;;8.03;5.63;;;23.10;99.90;;;;;;5052929;28;20453;-35
2022/10/31 12:48:07;;;;;;;7.90;5.30;;;23.10;99.90;;;;;;5042242;28;20477;-34
2022/10/31 12:50:51;;;;;;;6.20;5.60;;;23.10;99.90;;;;;;5041435;28;20465;-35
2022/10/31 12:53:44;;;;;;;5.97;5.37;;;23.10;99.90;;;;;;5050642;28;20457;-35
2022/10/31 12:56:27;;;;;;;5.63;4.93;;;23.10;99.90;;;;;;5051702;28;20453;-35
2022/10/31 12:59:01;;;;;;;9.13;6.57;;;23.10;99.90;;;;;;5047375;28;20481;-37
2022/10/31 13:01:33;;;;;;;11.00;6.50;;;23.10;99.90;;;;;;5039658;28;20465;-34